Time;durP1;ratioP1;P1;durP2;ratioP2;P2;SDS_P1;SDS_P2;PMS_P1;PMS_P2;Temp;Humidity;BMP_temperature;BMP_pressure;BME280_temperature;BME280_humidity;BME280_pressure;Samples;Min_cycle;Max_cycle;Signal;HPM_P1;HPM_P2
2024/02/27 00:00:54;;;;;;;72.15;44.35;;;;;;;11.13;100.00;99729.28;5090311;28;20094;-47
2024/02/27 00:03:22;;;;;;;73.03;44.17;;;;;;;11.15;100.00;99729.19;5089993;28;20052;-48
2024/02/27 00:05:51;;;;;;;79.05;45.42;;;;;;;11.11;100.00;99738.38;5089925;28;20139;-46
2024/02/27 00:08:19;;;;;;;76.93;45.03;;;;;;;11.05;100.00;99730.78;5090013;28;20109;-46
2024/02/27 00:10:48;;;;;;;73.10;45.05;;;;;;;10.99;100.00;99731.22;5090031;28;20113;-47
2024/02/27 00:13:17;;;;;;;77.35;45.38;;;;;;;10.96;100.00;99739.44;5089894;28;20542;-47
2024/02/27 00:15:46;;;;;;;71.50;44.60;;;;;;;11.01;100.00;99746.19;5090069;28;20094;-46
2024/02/27 00:18:16;;;;;;;73.03;45.15;;;;;;;10.94;100.00;99738.69;5092715;28;20056;-47
2024/02/27 00:20:45;;;;;;;74.75;45.53;;;;;;;11.04;100.00;99737.09;5093765;28;20448;-47
2024/02/27 00:23:14;;;;;;;75.18;44.95;;;;;;;11.06;100.00;99741.34;5093807;28;20067;-46
2024/02/27 00:25:42;;;;;;;74.88;46.45;;;;;;;11.11;100.00;99738.38;5093498;28;20085;-46
2024/02/27 00:28:10;;;;;;;77.68;46.90;;;;;;;11.08;100.00;99738.56;5093512;28;20044;-47
2024/02/27 00:30:40;;;;;;;79.32;46.63;;;;;;;11.03;100.00;99738.91;5093374;28;20055;-48
2024/02/27 00:33:09;;;;;;;75.35;47.35;;;;;;;10.83;100.00;99744.78;5093563;28;20098;-45
2024/02/27 00:35:37;;;;;;;78.93;46.13;;;;;;;10.83;100.00;99737.63;5093636;28;20052;-48
2024/02/27 00:38:05;;;;;;;78.85;47.38;;;;;;;10.81;100.00;99736.03;5093646;28;20172;-46
2024/02/27 00:40:34;;;;;;;75.05;47.33;;;;;;;10.92;100.00;99737.97;5093513;28;20048;-45
2024/02/27 00:43:02;;;;;;;83.80;49.47;;;;;;;10.77;100.00;99730.03;5093196;28;20056;-47
2024/02/27 00:45:31;;;;;;;74.78;46.08;;;;;;;10.74;100.00;99724.94;5093293;28;20044;-47
2024/02/27 00:48:01;;;;;;;84.28;47.67;;;;;;;10.63;100.00;99724.81;5093457;28;20060;-45
2024/02/27 00:50:30;;;;;;;81.65;48.00;;;;;;;10.80;100.00;99735.16;5093377;28;20047;-45
2024/02/27 00:52:59;;;;;;;76.03;46.30;;;;;;;10.83;100.00;99728.78;5092897;28;20044;-47
2024/02/27 00:55:27;;;;;;;76.00;46.38;;;;;;;10.74;100.00;99730.25;5092867;28;20557;-47
2024/02/27 00:57:56;;;;;;;76.32;46.60;;;;;;;10.81;100.00;99723.56;5093121;28;20044;-47
2024/02/27 01:00:24;;;;;;;80.47;46.88;;;;;;;10.63;100.00;99718.63;5092825;28;20055;-48
2024/02/27 01:02:53;;;;;;;78.38;46.30;;;;;;;10.68;100.00;99729.81;5092764;28;20139;-47
2024/02/27 01:05:22;;;;;;;76.95;45.28;;;;;;;10.80;100.00;99720.97;5092583;28;20044;-47
2024/02/27 01:07:51;;;;;;;78.68;46.53;;;;;;;10.68;100.00;99712.00;5092784;28;20048;-48
2024/02/27 01:10:19;;;;;;;76.88;45.42;;;;;;;10.58;100.00;99710.94;5092490;28;20444;-45
2024/02/27 01:12:48;;;;;;;81.93;47.72;;;;;;;10.61;100.00;99713.38;5092572;28;20397;-48
2024/02/27 01:15:16;;;;;;;73.63;44.60;;;;;;;10.52;100.00;99708.72;5092625;28;20055;-46
2024/02/27 01:17:45;;;;;;;72.68;43.63;;;;;;;10.55;100.00;99714.66;5092448;28;20044;-48
2024/02/27 01:20:13;;;;;;;72.82;44.92;;;;;;;10.71;100.00;99710.94;5092399;28;20095;-45
2024/02/27 01:22:43;;;;;;;73.93;44.20;;;;;;;10.76;100.00;99723.00;5092580;28;20056;-48
2024/02/27 01:25:15;;;;;;;73.72;45.58;;;;;;;10.71;100.00;99719.81;5092646;28;20090;-48
2024/02/27 01:27:44;;;;;;;70.22;43.90;;;;;;;10.78;100.00;99726.41;5092421;28;20131;-48
2024/02/27 01:30:19;;;;;;;69.72;43.50;;;;;;;10.78;100.00;99721.06;5091563;28;20547;-45
2024/02/27 01:32:47;;;;;;;68.82;43.05;;;;;;;10.53;100.00;99731.75;5092269;28;20059;-49
2024/02/27 01:35:18;;;;;;;72.18;42.80;;;;;;;10.50;100.00;99727.44;5092415;28;20044;-47
2024/02/27 01:37:48;;;;;;;70.68;43.05;;;;;;;10.35;100.00;99727.66;5092438;28;20086;-46
2024/02/27 01:40:16;;;;;;;70.57;43.85;;;;;;;10.35;100.00;99732.97;5092121;28;20479;-47
2024/02/27 01:42:45;;;;;;;77.95;44.25;;;;;;;10.18;100.00;99732.25;5092167;28;20459;-45
2024/02/27 01:45:21;;;;;;;78.60;45.17;;;;;;;10.36;100.00;99729.34;5091986;28;20411;-47
2024/02/27 01:47:52;;;;;;;74.25;43.60;;;;;;;10.41;100.00;99732.56;5092059;28;20492;-46
2024/02/27 01:50:23;;;;;;;69.22;42.65;;;;;;;10.52;100.00;99722.03;5092105;28;20460;-46
2024/02/27 01:52:53;;;;;;;74.72;43.28;;;;;;;10.46;100.00;99725.13;5091848;28;20052;-46
2024/02/27 01:55:22;;;;;;;73.63;43.00;;;;;;;10.39;100.00;99730.00;5091698;28;20059;-47
2024/02/27 01:57:50;;;;;;;75.35;44.25;;;;;;;10.46;100.00;99722.44;5091906;28;20105;-46
2024/02/27 02:00:20;;;;;;;70.70;44.45;;;;;;;10.53;100.00;99726.41;5091887;28;20079;-46
2024/02/27 02:02:49;;;;;;;74.75;44.67;;;;;;;10.64;100.00;99721.19;5092044;28;20075;-46
2024/02/27 02:05:17;;;;;;;75.20;44.00;;;;;;;10.70;100.00;99719.91;5091974;28;20087;-47
2024/02/27 02:07:46;;;;;;;74.80;43.50;;;;;;;10.81;100.00;99733.38;5091884;28;20411;-46
2024/02/27 02:10:16;;;;;;;70.53;42.97;;;;;;;10.82;100.00;99733.25;5091710;28;20366;-47
2024/02/27 02:12:44;;;;;;;75.25;42.47;;;;;;;10.85;100.00;99719.69;5091992;28;20212;-45
2024/02/27 02:15:13;;;;;;;65.68;39.60;;;;;;;10.80;100.00;99729.81;5092959;28;20040;-45
2024/02/27 02:17:42;;;;;;;70.28;41.78;;;;;;;10.89;100.00;99723.84;5094753;28;20186;-46
2024/02/27 02:20:16;;;;;;;66.43;41.75;;;;;;;10.94;100.00;99730.69;5092956;28;20075;-44
2024/02/27 02:22:45;;;;;;;71.75;42.70;;;;;;;10.98;100.00;99742.84;5091334;28;20051;-46
2024/02/27 02:25:16;;;;;;;67.18;41.45;;;;;;;10.92;100.00;99732.63;5091402;28;20412;-48
2024/02/27 02:27:45;;;;;;;68.28;40.55;;;;;;;10.92;100.00;99732.63;5091583;28;20127;-47
2024/02/27 02:30:14;;;;;;;64.75;39.75;;;;;;;10.91;100.00;99725.59;5091401;28;20044;-47
2024/02/27 02:32:47;;;;;;;62.35;38.45;;;;;;;10.91;100.00;99733.59;5091321;28;20112;-47
2024/02/27 02:35:17;;;;;;;62.78;38.60;;;;;;;10.95;100.00;99745.75;5091031;28;20130;-44
2024/02/27 02:37:48;;;;;;;63.47;39.25;;;;;;;10.99;100.00;99736.53;5091478;28;20079;-46
2024/02/27 02:40:17;;;;;;;67.88;39.80;;;;;;;10.76;100.00;99728.34;5091080;28;20051;-45
2024/02/27 02:42:46;;;;;;;64.47;39.53;;;;;;;10.83;100.00;99742.13;5091048;28;20115;-45
2024/02/27 02:45:15;;;;;;;65.88;40.05;;;;;;;10.85;100.00;99754.38;5091088;28;20431;-46
2024/02/27 02:47:44;;;;;;;70.15;40.63;;;;;;;10.80;100.00;99753.81;5090688;28;20434;-47
2024/02/27 02:50:13;;;;;;;61.03;38.45;;;;;;;10.81;100.00;99755.56;5090794;28;20159;-45
2024/02/27 02:52:44;;;;;;;61.03;37.40;;;;;;;10.85;100.00;99759.72;5090837;28;20140;-45
2024/02/27 02:55:13;;;;;;;59.70;35.85;;;;;;;10.94;100.00;99758.22;5090485;28;20052;-46
2024/02/27 02:57:42;;;;;;;59.35;35.50;;;;;;;11.02;100.00;99761.22;5090720;28;20044;-46
2024/02/27 03:00:11;;;;;;;57.00;35.53;;;;;;;10.97;100.00;99754.47;5090411;28;20048;-47
2024/02/27 03:02:40;;;;;;;53.72;33.97;;;;;;;10.87;100.00;99752.44;5090319;28;20056;-45
2024/02/27 03:05:12;;;;;;;57.25;36.47;;;;;;;10.83;100.00;99761.66;5090725;28;20052;-46
2024/02/27 03:07:43;;;;;;;58.22;34.85;;;;;;;10.77;100.00;99764.72;5090308;28;20052;-45
2024/02/27 03:10:11;;;;;;;52.72;34.10;;;;;;;10.79;100.00;99770.81;5090523;28;20504;-45
2024/02/27 03:12:44;;;;;;;54.80;34.20;;;;;;;10.89;100.00;99777.22;5090250;28;20514;-46
2024/02/27 03:15:12;;;;;;;51.58;33.58;;;;;;;10.98;100.00;99774.88;5090214;28;20048;-45
2024/02/27 03:17:41;;;;;;;56.75;34.45;;;;;;;11.03;100.00;99770.94;5090512;28;20134;-47
2024/02/27 03:20:10;;;;;;;52.10;32.92;;;;;;;10.99;100.00;99776.56;5090285;28;20090;-48
2024/02/27 03:22:38;;;;;;;53.83;33.53;;;;;;;11.00;100.00;99772.94;5090345;28;20071;-47
2024/02/27 03:25:10;;;;;;;56.22;35.38;;;;;;;10.99;100.00;99780.09;5090120;28;20044;-46
2024/02/27 03:27:38;;;;;;;52.00;31.35;;;;;;;10.99;100.00;99781.91;5090117;28;20040;-50
2024/02/27 03:30:10;;;;;;;50.33;31.50;;;;;;;10.99;100.00;99781.91;5090402;28;20051;-47
2024/02/27 03:32:39;;;;;;;47.65;29.75;;;;;;;11.05;100.00;99784.16;5089930;28;20542;-46
2024/02/27 03:35:09;;;;;;;48.88;30.00;;;;;;;11.02;100.00;99784.38;5090331;28;20118;-46
2024/02/27 03:37:38;;;;;;;48.95;28.98;;;;;;;10.98;100.00;99780.22;5090259;28;20614;-48
2024/02/27 03:40:10;;;;;;;50.20;30.48;;;;;;;11.02;100.00;99776.38;5089911;28;20044;-47
2024/02/27 03:42:38;;;;;;;49.75;29.90;;;;;;;11.05;100.00;99784.16;5090063;28;20080;-47
2024/02/27 03:45:09;;;;;;;49.95;30.92;;;;;;;10.93;100.00;99777.88;5090443;28;20394;-47
2024/02/27 03:47:38;;;;;;;55.72;32.00;;;;;;;10.83;100.00;99776.81;5090239;28;20067;-47
2024/02/27 03:50:07;;;;;;;49.40;31.23;;;;;;;10.96;100.00;99782.13;5089976;28;20087;-47
2024/02/27 03:52:35;;;;;;;49.33;31.23;;;;;;;10.95;100.00;99788.44;5091664;28;20093;-48
2024/02/27 03:55:04;;;;;;;51.17;31.40;;;;;;;10.87;100.00;99794.28;5094092;28;20052;-48
2024/02/27 03:57:34;;;;;;;47.15;29.10;;;;;;;10.97;100.00;99795.38;5094409;28;20055;-45
2024/02/27 04:00:04;;;;;;;49.83;29.77;;;;;;;11.05;100.00;99794.84;5094380;28;20055;-46
2024/02/27 04:02:32;;;;;;;48.47;30.50;;;;;;;11.12;100.00;99794.31;5094305;28;20409;-46
2024/02/27 04:05:00;;;;;;;49.90;29.70;;;;;;;11.18;100.00;99790.34;5094094;28;20046;-46
2024/02/27 04:07:29;;;;;;;47.40;29.63;;;;;;;11.20;100.00;99799.13;5093958;28;20542;-47
2024/02/27 04:09:57;;;;;;;43.05;26.83;;;;;;;11.08;100.00;99791.94;5094123;28;20083;-45
2024/02/27 04:12:26;;;;;;;47.95;27.85;;;;;;;11.06;100.00;99796.56;5093776;28;20121;-46
2024/02/27 04:14:56;;;;;;;45.20;28.35;;;;;;;11.09;100.00;99799.00;5093600;28;20048;-47
2024/02/27 04:17:24;;;;;;;44.67;28.85;;;;;;;11.15;100.00;99799.44;5093635;28;20052;-48
2024/02/27 04:19:53;;;;;;;45.22;27.85;;;;;;;11.15;100.00;99810.09;5093489;28;20048;-48
2024/02/27 04:22:22;;;;;;;44.47;28.58;;;;;;;11.18;100.00;99803.69;5093751;28;20149;-46
2024/02/27 04:24:50;;;;;;;42.35;26.80;;;;;;;11.07;100.00;99800.91;5093726;28;20135;-50
2024/02/27 04:27:18;;;;;;;43.42;27.38;;;;;;;11.08;100.00;99806.16;5093712;28;20048;-46
2024/02/27 04:29:47;;;;;;;44.83;27.05;;;;;;;11.14;100.00;99804.88;5093567;28;20055;-48
2024/02/27 04:32:17;;;;;;;43.70;26.85;;;;;;;11.12;100.00;99798.81;5093426;28;20149;-50
2024/02/27 04:34:46;;;;;;;43.60;27.15;;;;;;;11.14;100.00;99807.56;5093310;28;20067;-45
2024/02/27 04:37:14;;;;;;;44.45;27.48;;;;;;;11.12;100.00;99809.47;5093367;28;20052;-47
2024/02/27 04:39:45;;;;;;;43.88;27.73;;;;;;;11.13;100.00;99812.03;5093316;28;20044;-46
2024/02/27 04:42:13;;;;;;;43.72;28.13;;;;;;;11.06;100.00;99817.91;5093307;28;20078;-45
2024/02/27 04:44:41;;;;;;;44.20;28.02;;;;;;;11.02;100.00;99822.59;5093135;28;20121;-49
2024/02/27 04:47:10;;;;;;;47.65;29.73;;;;;;;10.99;100.00;99825.47;5092928;28;20131;-46
2024/02/27 04:49:40;;;;;;;49.95;31.00;;;;;;;10.89;100.00;99821.72;5092991;28;20040;-48
2024/02/27 04:52:08;;;;;;;47.13;29.88;;;;;;;10.95;100.00;99823.97;5093131;28;20394;-48
2024/02/27 04:54:36;;;;;;;49.92;32.00;;;;;;;10.87;100.00;99821.81;5092680;28;20505;-46
2024/02/27 04:57:05;;;;;;;50.75;31.42;;;;;;;11.00;100.00;99823.66;5093055;28;20055;-49
2024/02/27 04:59:33;;;;;;;48.80;30.40;;;;;;;10.65;100.00;99823.41;5092674;28;20131;-48
2024/02/27 05:02:03;;;;;;;53.33;31.50;;;;;;;10.63;100.00;99825.31;5092885;28;20664;-47
2024/02/27 05:04:32;;;;;;;52.97;32.08;;;;;;;10.63;100.00;99822.66;5091578;28;20410;-48
2024/02/27 05:07:02;;;;;;;44.28;28.75;;;;;;;10.56;100.00;99822.19;5092722;28;20481;-49
2024/02/27 05:09:30;;;;;;;46.35;28.83;;;;;;;10.43;100.00;99829.31;5092599;28;20044;-47
2024/02/27 05:11:59;;;;;;;49.35;30.27;;;;;;;10.53;100.00;99839.25;5092574;28;20417;-46
2024/02/27 05:14:27;;;;;;;49.80;31.00;;;;;;;10.59;100.00;99843.31;5092584;28;20048;-48
2024/02/27 05:16:55;;;;;;;51.03;30.85;;;;;;;10.64;100.00;99846.53;5092927;28;20139;-47
2024/02/27 05:19:24;;;;;;;51.85;30.10;;;;;;;10.67;100.00;99851.66;5092833;28;20217;-47
2024/02/27 05:21:52;;;;;;;50.33;30.45;;;;;;;10.68;100.00;99849.84;5092431;28;20493;-47
2024/02/27 05:24:22;;;;;;;47.78;28.75;;;;;;;10.62;100.00;99853.81;5092463;28;20048;-46
2024/02/27 05:26:51;;;;;;;47.42;29.02;;;;;;;10.72;100.00;99849.56;5092282;28;20148;-46
2024/02/27 05:29:19;;;;;;;50.90;30.73;;;;;;;10.75;100.00;99862.69;5092703;28;20048;-47
2024/02/27 05:31:47;;;;;;;52.40;30.05;;;;;;;10.82;100.00;99866.66;5092286;28;20124;-45
2024/02/27 05:34:15;;;;;;;47.97;30.13;;;;;;;10.87;100.00;99864.53;5092470;28;20087;-47
2024/02/27 05:36:44;;;;;;;50.42;30.30;;;;;;;10.65;100.00;99863.41;5092078;28;20144;-47
2024/02/27 05:39:14;;;;;;;45.05;28.33;;;;;;;10.75;100.00;99869.84;5092089;28;20477;-47
2024/02/27 05:41:43;;;;;;;45.20;27.98;;;;;;;10.71;100.00;99871.88;5092105;28;20109;-46
2024/02/27 05:44:12;;;;;;;47.78;28.70;;;;;;;10.48;100.00;99875.19;5092084;28;20484;-47
2024/02/27 05:46:40;;;;;;;39.15;24.42;;;;;;;10.53;100.00;99883.75;5092090;28;20052;-47
2024/02/27 05:49:09;;;;;;;42.55;25.80;;;;;;;10.70;100.00;99888.78;5092312;28;20121;-49
2024/02/27 05:51:40;;;;;;;41.78;26.10;;;;;;;10.70;100.00;99888.78;5092078;28;20048;-45
2024/02/27 05:54:08;;;;;;;41.80;25.10;;;;;;;10.59;100.00;99886.00;5091563;28;20515;-47
2024/02/27 05:56:36;;;;;;;39.63;23.50;;;;;;;10.69;100.00;99891.56;5092044;28;20044;-48
2024/02/27 05:59:07;;;;;;;36.60;22.83;;;;;;;10.74;100.00;99893.00;5091771;28;20090;-46
2024/02/27 06:01:35;;;;;;;33.63;21.42;;;;;;;10.73;100.00;99893.09;5091921;28;20044;-48
2024/02/27 06:04:04;;;;;;;33.78;20.35;;;;;;;10.62;100.00;99895.63;5092000;28;20048;-47
2024/02/27 06:06:33;;;;;;;29.35;18.60;;;;;;;10.69;100.00;99892.44;5091588;28;20051;-49
2024/02/27 06:09:03;;;;;;;30.40;18.50;;;;;;;10.64;100.00;99899.03;5091811;28;20058;-46
2024/02/27 06:11:32;;;;;;;30.52;17.25;;;;;;;10.51;100.00;99906.97;5091956;28;20133;-46
2024/02/27 06:14:02;;;;;;;28.52;16.88;;;;;;;10.57;100.00;99909.25;5091920;28;20047;-46
2024/02/27 06:16:33;;;;;;;32.35;19.10;;;;;;;10.70;100.00;99915.47;5091345;28;20044;-46
2024/02/27 06:19:02;;;;;;;32.35;17.63;;;;;;;10.66;100.00;99913.97;5091297;28;20136;-49
2024/02/27 06:24:17;;;;;;;31.35;17.65;;;;;;;10.53;100.00;99923.75;5091607;28;20044;-47
2024/02/27 06:26:45;;;;;;;33.35;17.30;;;;;;;10.73;100.00;99919.78;5092015;28;20048;-49
2024/02/27 06:29:13;;;;;;;30.30;17.85;;;;;;;10.75;100.00;99924.03;5091934;28;20161;-47
2024/02/27 06:31:43;;;;;;;30.38;17.38;;;;;;;10.76;100.00;99925.75;5092111;28;20075;-47
2024/02/27 06:34:11;;;;;;;31.95;17.08;;;;;;;10.79;100.00;99928.19;5092330;28;20054;-47
2024/02/27 06:36:39;;;;;;;28.80;17.30;;;;;;;11.00;100.00;99927.72;5091972;28;20044;-49
2024/02/27 06:39:09;;;;;;;29.40;16.52;;;;;;;11.04;100.00;99929.25;5091410;28;20052;-47
2024/02/27 06:41:37;;;;;;;27.13;16.88;;;;;;;11.04;100.00;99935.44;5091337;28;20062;-47
2024/02/27 06:44:05;;;;;;;30.67;16.67;;;;;;;11.12;100.00;99929.59;5091304;28;20127;-45
2024/02/27 06:46:33;;;;;;;26.98;16.02;;;;;;;11.10;100.00;99937.72;5091534;28;20067;-50
2024/02/27 06:49:03;;;;;;;28.63;16.05;;;;;;;11.13;100.00;99939.31;5089963;28;20048;-46
2024/02/27 06:51:44;;;;;;;29.23;15.13;;;;;;;11.15;100.00;99956.06;5091556;28;20052;-46
2024/02/27 06:54:13;;;;;;;26.13;15.13;;;;;;;11.23;100.00;99956.41;5091006;28;20055;-46
2024/02/27 06:56:41;;;;;;;27.02;16.58;;;;;;;11.41;100.00;99960.50;5091076;28;20044;-46
2024/02/27 06:59:10;;;;;;;30.65;16.27;;;;;;;11.36;100.00;99962.63;5091257;28;20131;-46
2024/02/27 07:01:38;;;;;;;25.58;15.13;;;;;;;11.44;100.00;99962.97;5091164;28;20044;-46
2024/02/27 07:04:08;;;;;;;26.60;15.68;;;;;;;11.49;100.00;99962.66;5091491;28;20052;-47
2024/02/27 07:06:36;;;;;;;24.38;14.25;;;;;;;11.41;100.00;99965.84;5091026;28;20048;-45
2024/02/27 07:09:08;;;;;;;30.42;15.77;;;;;;;11.43;100.00;99966.59;5090970;28;20048;-47
2024/02/27 07:11:37;;;;;;;25.73;15.38;;;;;;;11.63;100.00;99964.38;5090577;28;20040;-49
2024/02/27 07:14:06;;;;;;;26.65;15.40;;;;;;;11.71;100.00;99970.06;5090697;28;20055;-46
2024/02/27 07:16:34;;;;;;;24.45;15.40;;;;;;;11.72;100.00;99969.09;5090862;28;20044;-46
2024/02/27 07:19:03;;;;;;;25.85;14.52;;;;;;;11.91;100.00;99968.69;5090663;28;20055;-47
2024/02/27 07:21:32;;;;;;;26.98;14.50;;;;;;;11.99;100.00;99967.19;5090667;28;20044;-47
2024/02/27 07:24:00;;;;;;;25.17;14.77;;;;;;;11.80;100.00;99969.44;5090869;28;20044;-46
2024/02/27 07:26:29;;;;;;;28.58;14.77;;;;;;;11.94;100.00;99969.31;5090085;28;20048;-47
2024/02/27 07:28:57;;;;;;;25.15;15.35;;;;;;;12.11;100.00;99977.97;5090994;28;20047;-46
2024/02/27 07:31:25;;;;;;;23.58;14.40;;;;;;;12.07;100.00;99971.16;5090662;28;20098;-46
2024/02/27 07:33:55;;;;;;;27.70;15.02;;;;;;;12.04;100.00;99986.41;5090320;28;20644;-48
2024/02/27 07:36:24;;;;;;;26.17;14.70;;;;;;;12.16;100.00;99982.06;5090381;28;20044;-46
2024/02/27 07:38:53;;;;;;;25.10;15.05;;;;;;;12.25;100.00;99985.84;5090518;28;20394;-45
2024/02/27 07:41:22;;;;;;;25.63;14.35;;;;;;;12.14;100.00;99991.97;5091412;28;20052;-47
2024/02/27 07:43:50;;;;;;;24.25;13.73;;;;;;;12.27;100.00;99991.97;5090988;28;20052;-46
2024/02/27 07:46:18;;;;;;;24.50;14.30;;;;;;;12.15;100.00;99988.34;5090458;28;20057;-46
2024/02/27 07:48:46;;;;;;;25.67;14.68;;;;;;;12.26;100.00;99988.44;5090473;28;20072;-46
2024/02/27 07:51:26;;;;;;;28.98;15.27;;;;;;;12.33;100.00;99991.53;5090305;28;20048;-45
2024/02/27 07:53:57;;;;;;;26.05;14.40;;;;;;;12.47;100.00;99983.38;5087200;28;20062;-47
2024/02/27 07:56:27;;;;;;;25.20;14.90;;;;;;;12.66;100.00;99990.06;5087639;28;20040;-46
2024/02/27 07:58:57;;;;;;;40.20;16.52;;;;;;;12.76;100.00;99985.75;5089747;28;20205;-45
2024/02/27 08:01:26;;;;;;;28.42;15.45;;;;;;;12.69;100.00;99992.50;5099091;28;20039;-46
2024/02/27 08:03:54;;;;;;;25.85;13.93;;;;;;;12.76;100.00;99991.09;5091006;28;20056;-44
2024/02/27 08:06:26;;;;;;;24.92;14.55;;;;;;;12.65;100.00;99991.03;5099048;28;20153;-46
2024/02/27 08:08:56;;;;;;;24.58;15.15;;;;;;;12.67;100.00;99989.09;5087342;28;20048;-46
2024/02/27 08:11:26;;;;;;;28.65;15.38;;;;;;;12.81;100.00;99991.59;5088350;28;20135;-45
2024/02/27 08:13:54;;;;;;;24.05;14.55;;;;;;;12.76;100.00;99993.78;5089173;28;20138;-46
2024/02/27 08:16:23;;;;;;;25.95;15.00;;;;;;;12.82;100.00;99988.81;5089502;28;20044;-46
2024/02/27 08:18:51;;;;;;;21.00;13.77;;;;;;;12.76;100.00;99991.97;5087077;28;20071;-45
2024/02/27 08:21:20;;;;;;;25.08;15.02;;;;;;;12.76;100.00;99991.09;5087853;28;20044;-46
2024/02/27 08:23:48;;;;;;;25.65;14.30;;;;;;;12.71;100.00;99986.06;5089382;28;20044;-45
2024/02/27 08:26:18;;;;;;;25.27;14.23;;;;;;;12.76;100.00;99988.44;5089201;28;20044;-45
2024/02/27 08:28:46;;;;;;;28.13;14.43;;;;;;;13.01;100.00;99993.66;5089298;28;20074;-45
2024/02/27 08:31:14;;;;;;;22.75;13.98;;;;;;;13.10;100.00;99987.63;5087559;28;20043;-48
2024/02/27 08:33:43;;;;;;;24.52;14.40;;;;;;;13.08;100.00;99989.56;5089116;28;20044;-46
2024/02/27 08:36:12;;;;;;;23.85;13.60;;;;;;;13.07;100.00;99995.91;5086497;28;20119;-46
2024/02/27 08:38:43;;;;;;;23.90;13.68;;;;;;;12.93;100.00;99985.34;5091028;28;20036;-48
2024/02/27 08:41:11;;;;;;;23.05;14.40;;;;;;;12.95;100.00;99991.47;5089902;28;20485;-46
2024/02/27 08:43:46;;;;;;;22.60;13.85;;;;;;;13.03;100.00;99989.06;5092880;28;20044;-50
2024/02/27 08:46:18;;;;;;;23.88;14.55;;;;;;;12.76;100.00;99991.09;5093033;28;20044;-45
2024/02/27 08:48:46;;;;;;;32.42;15.20;;;;;;;13.10;100.00;99987.63;5092136;28;20046;-46
2024/02/27 08:51:15;;;;;;;27.05;15.02;;;;;;;13.05;100.00;99976.41;5090498;28;20047;-45
2024/02/27 08:53:44;;;;;;;25.52;14.73;;;;;;;13.14;100.00;99974.88;5091987;28;20036;-47
2024/02/27 08:56:12;;;;;;;25.83;14.35;;;;;;;13.25;100.00;99991.03;5089636;28;20067;-44
2024/02/27 08:58:41;;;;;;;23.60;14.30;;;;;;;13.30;100.00;99988.84;5092070;28;20500;-46
2024/02/27 09:01:13;;;;;;;23.95;15.35;;;;;;;13.46;100.00;99991.22;5092375;28;20485;-47
2024/02/27 09:03:41;;;;;;;23.13;14.43;;;;;;;13.43;100.00;99988.78;5092266;28;20127;-46
2024/02/27 09:06:11;;;;;;;24.10;14.25;;;;;;;13.52;100.00;99996.13;5090317;28;20051;-48
2024/02/27 09:08:41;;;;;;;22.17;13.88;;;;;;;13.68;100.00;99998.47;5090126;28;20040;-45
2024/02/27 09:11:09;;;;;;;24.27;14.05;;;;;;;13.80;100.00;99996.66;5092509;28;20093;-45
2024/02/27 09:13:37;;;;;;;26.10;13.85;;;;;;;13.96;100.00;99992.66;5091867;28;20044;-46
2024/02/27 09:16:06;;;;;;;22.35;14.20;;;;;;;13.80;100.00;100007.38;5092281;28;20638;-46
2024/02/27 09:18:38;;;;;;;22.83;13.55;;;;;;;13.93;100.00;100000.09;5092172;28;20151;-46
2024/02/27 09:21:07;;;;;;;23.63;14.90;;;;;;;14.05;100.00;100007.19;5092326;28;20135;-45
2024/02/27 09:23:36;;;;;;;22.95;14.00;;;;;;;14.01;100.00;100021.81;5093434;28;20059;-46
2024/02/27 09:26:07;;;;;;;25.25;14.57;;;;;;;14.14;100.00;100019.88;5092078;28;20080;-46
2024/02/27 09:28:35;;;;;;;23.33;14.25;;;;;;;14.29;100.00;100012.47;5091835;28;20040;-47
2024/02/27 09:31:05;;;;;;;23.58;13.90;;;;;;;14.41;100.00;100013.31;5093321;28;20556;-45
2024/02/27 09:33:40;;;;;;;21.95;13.48;;;;;;;14.45;100.00;100012.97;5099097;28;20046;-45
2024/02/27 09:36:09;;;;;;;29.35;14.23;;;;;;;14.55;100.00;100019.28;5101099;28;20075;-46
2024/02/27 09:38:37;;;;;;;24.23;13.77;;;;;;;14.55;100.00;100007.69;5098868;28;20048;-45
2024/02/27 09:41:06;;;;;;;26.98;13.77;;;;;;;14.54;100.00;100011.38;5101097;28;20441;-45
2024/02/27 09:43:38;;;;;;;25.90;13.73;;;;;;;14.60;100.00;100014.41;5098160;28;20055;-46
2024/02/27 09:46:07;;;;;;;26.58;14.65;;;;;;;14.69;100.00;100010.16;5098082;28;20131;-44
2024/02/27 09:48:43;;;;;;;24.98;15.05;;;;;;;14.52;100.00;100010.66;5092057;28;20331;-46
2024/02/27 09:51:15;;;;;;;25.13;14.23;;;;;;;14.22;100.00;100009.41;5091344;28;20051;-45
2024/02/27 09:53:45;;;;;;;23.58;13.82;;;;;;;14.43;100.00;100009.50;5091863;28;20408;-45
2024/02/27 09:56:15;;;;;;;23.45;13.93;;;;;;;14.68;100.00;100013.81;5091430;28;20589;-44
2024/02/27 09:58:44;;;;;;;23.73;14.68;;;;;;;14.52;100.00;100007.97;5091350;28;20048;-46
2024/02/27 10:01:13;;;;;;;23.55;13.48;;;;;;;14.74;100.00;100004.38;5091956;28;20101;-46
2024/02/27 10:03:45;;;;;;;27.23;14.70;;;;;;;14.79;100.00;100013.78;5091775;28;20062;-46
2024/02/27 10:06:18;;;;;;;22.83;14.55;;;;;;;14.93;100.00;100011.78;5091898;28;20055;-45
2024/02/27 10:08:54;;;;;;;28.05;13.95;;;;;;;14.93;100.00;100019.84;5091128;28;20094;-46
2024/02/27 10:11:23;;;;;;;21.17;13.10;;;;;;;15.13;100.00;100013.69;5091749;28;20048;-46
2024/02/27 10:13:51;;;;;;;22.08;13.98;;;;;;;14.98;100.00;100017.66;5091070;28;20079;-45
2024/02/27 10:16:22;;;;;;;22.30;13.48;;;;;;;14.83;100.00;100020.59;5091374;28;20503;-47
2024/02/27 10:18:51;;;;;;;20.27;13.32;;;;;;;14.97;100.00;100021.31;5091253;28;20051;-47
2024/02/27 10:21:21;;;;;;;22.85;13.48;;;;;;;14.87;100.00;100021.22;5091420;28;20058;-46
2024/02/27 10:23:49;;;;;;;21.63;13.63;;;;;;;14.88;100.00;100023.78;5091210;28;20327;-47
2024/02/27 10:26:18;;;;;;;23.90;14.07;;;;;;;14.84;100.00;100016.09;5091692;28;20036;-47
2024/02/27 10:28:49;;;;;;;23.70;13.77;;;;;;;14.96;100.00;100030.34;5090724;28;20076;-48
2024/02/27 10:31:18;;;;;;;24.30;14.82;;;;;;;14.70;100.00;100027.94;5090405;28;20079;-46
2024/02/27 10:33:47;;;;;;;20.85;13.35;;;;;;;14.42;100.00;100031.09;5091292;28;20060;-48
2024/02/27 10:36:15;;;;;;;21.25;12.95;;;;;;;14.50;100.00;100034.06;5089705;28;20071;-48
2024/02/27 10:38:45;;;;;;;20.60;13.55;;;;;;;14.76;100.00;100024.75;5070104;28;20126;-45
2024/02/27 10:41:15;;;;;;;24.30;14.68;;;;;;;14.89;100.00;100028.16;5070597;28;20052;-48
2024/02/27 10:43:43;;;;;;;22.70;14.18;;;;;;;15.00;100.00;100026.44;5070140;28;20083;-47
2024/02/27 10:46:12;;;;;;;22.23;14.55;;;;;;;14.74;100.00;100017.81;5070075;28;20186;-46
2024/02/27 10:48:43;;;;;;;24.67;14.55;;;;;;;15.03;100.00;100023.50;5070055;28;20097;-46
2024/02/27 10:51:13;;;;;;;21.30;13.27;;;;;;;15.20;100.00;100019.41;5070421;28;20056;-47
2024/02/27 10:53:43;;;;;;;22.23;13.38;;;;;;;15.36;100.00;100017.16;5079591;28;20537;-45
2024/02/27 10:56:13;;;;;;;23.88;14.55;;;;;;;15.14;100.00;100013.56;5090408;28;20473;-44
2024/02/27 10:58:43;;;;;;;22.23;13.68;;;;;;;15.13;100.00;100019.06;5090323;28;20072;-46
2024/02/27 11:01:12;;;;;;;21.90;13.63;;;;;;;15.28;100.00;100007.06;5089693;28;20149;-47
2024/02/27 11:03:41;;;;;;;25.17;13.68;;;;;;;15.33;100.00;100002.13;5089900;28;20117;-48
2024/02/27 11:06:14;;;;;;;24.50;14.05;;;;;;;15.35;100.00;100007.41;5090675;28;20048;-52
2024/02/27 11:08:46;;;;;;;23.85;14.00;;;;;;;15.33;100.00;100001.28;5090654;28;20048;-48
2024/02/27 11:11:17;;;;;;;18.33;13.05;;;;;;;15.31;100.00;100009.47;5090036;28;20098;-47
2024/02/27 11:13:47;;;;;;;25.45;13.57;;;;;;;15.21;100.00;99997.78;5090588;28;20055;-46
2024/02/27 11:16:20;;;;;;;27.25;14.27;;;;;;;15.50;100.00;99999.88;5090509;28;20074;-48
2024/02/27 11:18:53;;;;;;;21.00;13.23;;;;;;;15.45;100.00;99998.44;5090805;28;20051;-49